Time;durP1;ratioP1;P1;durP2;ratioP2;P2;SDS_P1;SDS_P2;PMS_P1;PMS_P2;Temp;Humidity;BMP_temperature;BMP_pressure;BME280_temperature;BME280_humidity;BME280_pressure;Samples;Min_cycle;Max_cycle;Signal;HPM_P1;HPM_P2
2022/06/12 00:01:31;;;;;;;1.00;0.93;;;14.90;99.90;;;;;;4094481;29;20139;-48
2022/06/12 00:03:53;;;;;;;1.00;1.00;;;14.90;99.90;;;;;;4094085;29;20058;-48
2022/06/12 00:06:17;;;;;;;1.10;1.00;;;14.90;99.90;;;;;;4094198;29;20211;-47
2022/06/12 00:08:40;;;;;;;0.95;0.88;;;14.60;99.90;;;;;;4094573;29;20053;-48
2022/06/12 00:11:10;;;;;;;1.25;0.90;;;14.60;99.90;;;;;;4112184;28;20143;-49
2022/06/12 00:13:36;;;;;;;0.95;0.90;;;14.80;99.90;;;;;;4177843;28;20063;-50
2022/06/12 00:15:58;;;;;;;1.08;1.00;;;14.80;99.90;;;;;;4177534;28;20059;-51
2022/06/12 00:18:19;;;;;;;1.77;0.90;;;14.70;99.90;;;;;;4113446;28;20105;-51
2022/06/12 00:20:40;;;;;;;1.00;1.00;;;14.80;99.90;;;;;;4094511;29;20138;-47
2022/06/12 00:23:06;;;;;;;0.90;0.90;;;14.80;99.90;;;;;;4094288;29;20058;-48
2022/06/12 00:25:30;;;;;;;0.90;0.90;;;14.80;99.90;;;;;;4094306;29;20057;-50
2022/06/12 00:27:51;;;;;;;0.90;0.90;;;14.90;99.90;;;;;;4093957;29;20051;-50
2022/06/12 00:30:16;;;;;;;0.90;0.90;;;14.70;99.90;;;;;;4093925;29;20522;-50
2022/06/12 00:32:38;;;;;;;0.90;0.90;;;14.60;99.90;;;;;;4094088;29;20097;-48
2022/06/12 00:34:59;;;;;;;0.90;0.90;;;14.60;99.90;;;;;;4094229;29;20069;-51
2022/06/12 00:37:23;;;;;;;1.00;1.00;;;14.40;99.90;;;;;;4094237;29;20126;-51
2022/06/12 00:39:46;;;;;;;0.90;0.90;;;14.10;99.90;;;;;;4093730;29;20081;-50
2022/06/12 00:42:18;;;;;;;0.90;0.90;;;13.90;99.90;;;;;;4094053;29;20054;-51
2022/06/12 00:44:42;;;;;;;0.88;0.88;;;13.90;99.90;;;;;;4091121;29;20050;-48
2022/06/12 00:47:12;;;;;;;0.90;0.90;;;13.90;99.90;;;;;;4093604;29;20131;-49
2022/06/12 00:49:43;;;;;;;1.52;0.90;;;14.10;99.90;;;;;;4081854;29;20528;-51
2022/06/12 00:52:29;;;;;;;1.55;0.93;;;14.20;99.90;;;;;;4093454;29;20055;-50
2022/06/12 00:54:55;;;;;;;0.90;0.90;;;14.10;99.90;;;;;;4094664;28;20090;-51
2022/06/12 00:57:18;;;;;;;1.50;1.35;;;14.10;99.90;;;;;;4096583;29;20070;-50
2022/06/12 00:59:39;;;;;;;;;;;14.10;99.90;;;;;;4097274;29;20174;-49
2022/06/12 01:02:02;;;;;;;0.85;0.85;;;14.10;99.90;;;;;;4096599;29;19980;-50
2022/06/12 01:07:11;;;;;;;0.90;0.90;;;14.10;99.90;;;;;;4096620;29;20078;-50
2022/06/12 01:09:38;;;;;;;0.95;0.95;;;14.10;99.90;;;;;;4096387;29;20101;-51
2022/06/12 01:12:02;;;;;;;1.83;0.90;;;14.00;99.90;;;;;;4146927;28;20052;-49
2022/06/12 01:14:29;;;;;;;0.90;0.90;;;13.90;99.90;;;;;;4119365;28;20632;-50
2022/06/12 01:16:50;;;;;;;1.15;0.90;;;13.90;99.90;;;;;;4096006;28;20057;-47
2022/06/12 01:19:25;;;;;;;0.85;0.85;;;13.80;99.90;;;;;;4096550;29;20529;-51
2022/06/12 01:22:05;;;;;;;1.17;0.90;;;13.70;99.90;;;;;;4080909;29;20062;-51
2022/06/12 01:24:36;;;;;;;1.50;1.00;;;13.80;99.90;;;;;;4095762;29;20104;-51
2022/06/12 01:27:19;;;;;;;1.00;1.00;;;13.80;99.90;;;;;;4096135;29;20505;-49
2022/06/12 01:29:41;;;;;;;1.00;1.00;;;13.90;99.90;;;;;;4096459;29;20158;-51
2022/06/12 01:32:09;;;;;;;0.90;0.90;;;13.80;99.90;;;;;;4096072;29;20079;-50
2022/06/12 01:34:52;;;;;;;1.42;0.90;;;13.90;99.90;;;;;;4080121;29;20105;-49
2022/06/12 01:37:31;;;;;;;1.23;1.10;;;13.80;99.90;;;;;;4095767;29;20165;-51
2022/06/12 01:40:23;;;;;;;1.27;1.23;;;13.70;99.90;;;;;;4084767;29;20122;-47
2022/06/12 01:43:12;;;;;;;0.85;0.85;;;13.50;99.90;;;;;;4080177;29;20082;-51
2022/06/12 01:45:33;;;;;;;1.55;1.10;;;13.50;99.90;;;;;;4085664;29;20136;-48
2022/06/12 01:48:02;;;;;;;1.35;0.90;;;13.50;99.90;;;;;;4096357;29;20105;-47
2022/06/12 01:51:03;;;;;;;0.90;0.90;;;13.50;99.90;;;;;;4090253;29;20082;-50
2022/06/12 01:53:39;;;;;;;1.75;0.90;;;13.40;99.90;;;;;;4109156;28;20071;-49
2022/06/12 01:56:11;;;;;;;1.00;1.00;;;13.40;99.90;;;;;;4079775;29;20573;-52
2022/06/12 01:58:46;;;;;;;1.00;1.00;;;13.40;99.90;;;;;;4087270;29;20424;-50
2022/06/12 02:01:17;;;;;;;1.00;1.00;;;13.20;99.90;;;;;;4095436;29;20113;-50
2022/06/12 02:03:52;;;;;;;1.30;1.10;;;13.20;99.90;;;;;;4095598;29;20065;-48
2022/06/12 02:06:20;;;;;;;0.90;0.90;;;13.20;99.90;;;;;;4078862;29;20055;-49
2022/06/12 02:09:01;;;;;;;0.93;0.90;;;13.20;99.90;;;;;;4094182;29;20097;-52
2022/06/12 02:14:24;;;;;;;1.08;0.95;;;13.10;99.90;;;;;;4146712;28;20132;-50
2022/06/12 02:16:51;;;;;;;0.93;0.93;;;13.10;99.90;;;;;;4095514;29;20134;-50
2022/06/12 02:19:38;;;;;;;1.00;1.00;;;13.10;99.90;;;;;;4079729;29;20062;-50
2022/06/12 02:22:12;;;;;;;2.28;1.00;;;13.10;99.90;;;;;;4079890;29;20524;-49
2022/06/12 02:24:42;;;;;;;1.35;0.93;;;13.10;99.90;;;;;;4079622;29;20125;-48
2022/06/12 02:27:08;;;;;;;1.08;1.08;;;13.00;99.90;;;;;;4080008;29;20055;-47
2022/06/12 02:29:42;;;;;;;0.90;0.90;;;12.90;99.90;;;;;;4079820;29;20050;-51
2022/06/12 02:32:32;;;;;;;1.20;1.13;;;13.00;99.90;;;;;;4079711;29;20547;-48
2022/06/12 02:35:01;;;;;;;0.90;0.90;;;13.00;99.90;;;;;;4079924;29;20054;-48
2022/06/12 02:37:36;;;;;;;1.48;1.00;;;12.90;99.90;;;;;;4091271;29;20472;-50
2022/06/12 02:40:10;;;;;;;0.90;0.90;;;12.90;99.90;;;;;;4095754;29;20058;-48
2022/06/12 02:42:37;;;;;;;1.00;1.00;;;12.80;99.90;;;;;;4095307;29;20113;-50
2022/06/12 02:45:09;;;;;;;1.60;1.00;;;12.80;99.90;;;;;;4079280;29;20050;-47
2022/06/12 02:47:34;;;;;;;1.20;1.10;;;12.80;99.90;;;;;;4080713;29;20046;-51
2022/06/12 02:49:57;;;;;;;1.88;0.95;;;12.90;99.90;;;;;;4095050;29;20058;-51
2022/06/12 02:52:43;;;;;;;1.40;1.00;;;12.90;99.90;;;;;;4095201;29;20306;-50
2022/06/12 02:55:11;;;;;;;1.30;1.10;;;12.80;99.90;;;;;;4095186;29;20065;-49
2022/06/12 02:57:46;;;;;;;1.05;1.05;;;12.80;99.90;;;;;;4095165;29;20081;-49
2022/06/12 03:00:35;;;;;;;1.20;1.20;;;12.80;99.90;;;;;;4094812;29;20450;-49
2022/06/12 03:03:07;;;;;;;1.02;1.02;;;12.70;99.90;;;;;;4094973;29;20465;-50
2022/06/12 03:05:36;;;;;;;1.10;1.05;;;12.60;99.90;;;;;;4094847;29;20560;-48
2022/06/12 03:08:06;;;;;;;1.27;1.27;;;12.60;99.90;;;;;;4094616;29;20070;-49
2022/06/12 03:10:37;;;;;;;1.10;1.10;;;12.60;99.90;;;;;;4095089;29;20066;-49
2022/06/12 03:12:59;;;;;;;1.25;0.90;;;12.60;99.90;;;;;;4079153;29;20127;-48
2022/06/12 03:15:35;;;;;;;1.00;1.00;;;12.60;99.90;;;;;;4088940;29;20081;-50
2022/06/12 03:17:59;;;;;;;1.67;1.67;;;12.70;99.90;;;;;;4094335;28;20105;-48
2022/06/12 03:20:26;;;;;;;1.10;1.10;;;12.60;99.90;;;;;;4094671;29;20471;-48
2022/06/12 03:23:01;;;;;;;1.52;1.00;;;12.60;99.90;;;;;;4078977;29;20423;-49
2022/06/12 03:25:26;;;;;;;1.20;1.20;;;12.50;99.90;;;;;;4092554;29;20050;-47
2022/06/12 03:28:06;;;;;;;1.05;1.00;;;12.30;99.90;;;;;;4094723;29;20045;-50
2022/06/12 03:30:48;;;;;;;1.20;1.20;;;12.40;99.90;;;;;;4094719;29;20062;-50
2022/06/12 03:34:01;;;;;;;1.00;1.00;;;12.50;99.90;;;;;;4095031;29;20603;-50
2022/06/12 03:36:31;;;;;;;1.15;1.00;;;12.50;99.90;;;;;;4112897;28;20121;-49
2022/06/12 03:39:14;;;;;;;1.70;1.63;;;12.50;99.90;;;;;;4078644;29;20114;-49
2022/06/12 03:41:50;;;;;;;1.70;1.60;;;12.30;99.90;;;;;;4094234;29;20081;-50
2022/06/12 03:44:14;;;;;;;1.52;1.42;;;12.10;99.90;;;;;;4094261;29;20049;-47
2022/06/12 03:46:44;;;;;;;1.38;1.38;;;11.90;99.90;;;;;;4093975;29;20050;-47
2022/06/12 03:49:31;;;;;;;1.30;1.30;;;11.80;99.90;;;;;;4094450;29;20423;-46
2022/06/12 03:52:03;;;;;;;2.00;1.45;;;11.70;99.90;;;;;;4078629;29;20084;-48
2022/06/12 03:54:53;;;;;;;3.35;1.40;;;11.70;99.90;;;;;;4094617;29;20066;-49
2022/06/12 04:00:19;;;;;;;1.20;1.20;;;11.80;99.90;;;;;;4089233;29;20466;-47
2022/06/12 04:02:42;;;;;;;1.48;1.30;;;11.70;99.90;;;;;;4087699;29;20058;-48
2022/06/12 04:05:07;;;;;;;1.97;1.83;;;11.70;99.90;;;;;;4078647;29;20420;-50
2022/06/12 04:07:31;;;;;;;3.10;1.20;;;11.80;99.90;;;;;;4082872;29;20687;-50
2022/06/12 04:09:55;;;;;;;1.48;1.40;;;12.00;99.90;;;;;;4094229;29;20055;-50
2022/06/12 04:12:28;;;;;;;1.85;1.20;;;12.00;99.90;;;;;;4132042;28;20058;-50
2022/06/12 04:15:05;;;;;;;1.65;1.65;;;11.90;99.90;;;;;;4094218;29;20510;-47
2022/06/12 04:17:27;;;;;;;3.80;1.60;;;11.90;99.90;;;;;;4093616;28;20130;-49
2022/06/12 04:19:59;;;;;;;1.47;1.47;;;11.90;99.90;;;;;;4079532;29;20054;-46
2022/06/12 04:22:24;;;;;;;1.80;1.70;;;11.90;99.90;;;;;;4087586;29;20051;-48
2022/06/12 04:24:51;;;;;;;1.50;1.10;;;12.00;99.90;;;;;;4093563;29;20058;-46
2022/06/12 04:27:24;;;;;;;1.10;1.10;;;12.00;99.90;;;;;;4093272;29;20125;-49
2022/06/12 04:30:03;;;;;;;1.52;1.20;;;12.00;99.90;;;;;;4078497;29;20082;-47
2022/06/12 04:32:25;;;;;;;2.38;1.50;;;12.00;99.90;;;;;;4094547;29;20066;-46
2022/06/12 04:34:48;;;;;;;1.10;1.10;;;12.10;99.90;;;;;;4096718;29;20058;-51
2022/06/12 04:37:14;;;;;;;1.55;1.23;;;12.10;99.90;;;;;;4096736;29;20058;-47
2022/06/12 04:39:35;;;;;;;1.73;1.50;;;12.30;99.90;;;;;;4096672;29;20062;-50
2022/06/12 04:41:57;;;;;;;2.67;1.40;;;12.40;99.90;;;;;;4096488;29;20062;-50
2022/06/12 04:44:19;;;;;;;1.20;1.20;;;12.60;99.90;;;;;;4096435;29;20054;-50
2022/06/12 04:46:45;;;;;;;1.98;1.15;;;12.60;99.90;;;;;;4096861;29;20054;-48
2022/06/12 04:49:09;;;;;;;1.75;1.30;;;12.60;99.90;;;;;;4096567;29;20050;-47
2022/06/12 04:51:31;;;;;;;1.55;1.45;;;12.60;99.90;;;;;;4096604;29;20109;-50
2022/06/12 04:53:53;;;;;;;1.45;1.35;;;12.60;99.90;;;;;;4096401;29;20101;-48
2022/06/12 04:56:17;;;;;;;2.92;1.20;;;12.60;99.90;;;;;;4096293;29;20162;-47
2022/06/12 04:58:39;;;;;;;1.42;1.42;;;12.60;99.90;;;;;;4080885;29;20050;-50
2022/06/12 05:01:01;;;;;;;3.78;1.50;;;12.60;99.90;;;;;;4093206;29;20050;-47
2022/06/12 05:03:23;;;;;;;1.50;1.40;;;12.60;99.90;;;;;;4096416;29;20407;-47
2022/06/12 05:05:45;;;;;;;2.15;1.50;;;12.60;99.90;;;;;;4096182;29;20131;-47
2022/06/12 05:08:08;;;;;;;1.58;1.52;;;12.70;99.90;;;;;;4089285;29;20046;-49
2022/06/12 05:10:31;;;;;;;2.05;1.20;;;12.80;99.90;;;;;;4080339;29;20486;-50
2022/06/12 05:12:53;;;;;;;2.35;1.70;;;12.80;99.90;;;;;;4086077;29;20074;-47
2022/06/12 05:15:17;;;;;;;3.08;2.25;;;12.80;99.90;;;;;;4096474;29;20856;-49
2022/06/12 05:17:40;;;;;;;6.35;1.70;;;13.00;99.90;;;;;;4121852;28;20059;-46
2022/06/12 05:20:04;;;;;;;1.40;1.40;;;13.00;99.90;;;;;;4118147;28;20101;-48
2022/06/12 05:22:27;;;;;;;1.80;1.80;;;13.00;99.90;;;;;;4108710;28;20122;-50
2022/06/12 05:24:50;;;;;;;2.15;1.30;;;13.20;99.90;;;;;;4096078;29;20105;-47
2022/06/12 05:27:17;;;;;;;1.17;1.17;;;13.20;99.90;;;;;;4080541;29;20106;-50
2022/06/12 05:29:41;;;;;;;1.30;1.30;;;13.30;99.90;;;;;;4080007;29;20055;-47
2022/06/12 05:32:04;;;;;;;1.27;1.25;;;13.50;99.90;;;;;;4080114;29;20054;-47
2022/06/12 05:34:27;;;;;;;1.50;1.40;;;13.60;99.90;;;;;;4080629;29;20055;-51
2022/06/12 05:36:50;;;;;;;1.50;1.20;;;13.70;99.90;;;;;;4080120;29;20071;-47
2022/06/12 05:39:13;;;;;;;2.50;1.20;;;13.80;99.90;;;;;;4092094;29;20058;-50
2022/06/12 05:41:35;;;;;;;1.33;1.27;;;13.90;99.90;;;;;;4095899;28;20105;-49
2022/06/12 05:43:59;;;;;;;1.98;1.25;;;13.90;99.90;;;;;;4095904;29;20167;-47
2022/06/12 05:46:21;;;;;;;1.08;1.08;;;14.00;99.90;;;;;;4080116;29;20522;-49
2022/06/12 05:48:43;;;;;;;1.10;1.10;;;14.20;99.90;;;;;;4091382;29;20132;-50
2022/06/12 05:51:05;;;;;;;1.20;1.10;;;14.30;99.90;;;;;;4091281;29;20080;-49
2022/06/12 05:53:29;;;;;;;1.13;1.13;;;14.40;99.90;;;;;;4079305;29;20132;-50
2022/06/12 05:55:51;;;;;;;4.10;1.00;;;14.50;99.90;;;;;;4080023;29;20103;-47
2022/06/12 05:58:15;;;;;;;2.00;1.10;;;14.70;99.90;;;;;;4090660;29;20054;-47
2022/06/12 06:00:37;;;;;;;1.10;1.10;;;14.80;99.90;;;;;;4091471;29;20113;-48
2022/06/12 06:03:00;;;;;;;1.30;1.20;;;14.90;99.90;;;;;;4080238;29;20059;-47
2022/06/12 06:05:21;;;;;;;1.10;1.10;;;15.00;99.90;;;;;;4080008;29;20050;-52
2022/06/12 06:07:46;;;;;;;1.17;1.17;;;15.10;99.90;;;;;;4090265;29;20046;-50
2022/06/12 06:10:13;;;;;;;1.77;1.00;;;15.20;99.90;;;;;;4095592;29;20509;-49
2022/06/12 06:12:35;;;;;;;7.97;1.20;;;15.30;99.90;;;;;;4094837;29;20051;-47
2022/06/12 06:14:57;;;;;;;0.98;0.98;;;15.20;99.90;;;;;;4088014;29;20136;-48
2022/06/12 06:17:19;;;;;;;1.00;1.00;;;15.40;99.90;;;;;;4095538;28;20118;-50
2022/06/12 06:19:41;;;;;;;1.48;1.10;;;15.50;99.90;;;;;;4095152;29;20134;-50
2022/06/12 06:22:03;;;;;;;0.90;0.90;;;15.60;99.90;;;;;;4095412;29;20053;-47
2022/06/12 06:24:27;;;;;;;0.90;0.90;;;15.80;99.90;;;;;;4079536;29;20171;-48
2022/06/12 06:26:49;;;;;;;0.85;0.80;;;16.00;99.90;;;;;;4090296;29;20114;-48
2022/06/12 06:29:11;;;;;;;0.90;0.90;;;16.10;99.90;;;;;;4095314;29;20203;-50
2022/06/12 06:31:33;;;;;;;0.90;0.90;;;16.20;99.90;;;;;;4094185;29;20058;-48
2022/06/12 06:33:55;;;;;;;0.80;0.80;;;16.50;99.90;;;;;;4095130;29;20065;-49
2022/06/12 06:36:17;;;;;;;0.80;0.80;;;16.80;99.90;;;;;;4094528;29;20066;-50
2022/06/12 06:38:39;;;;;;;0.90;0.90;;;17.00;99.90;;;;;;4095286;29;20658;-50
2022/06/12 06:41:00;;;;;;;3.25;0.80;;;17.10;99.90;;;;;;4095677;29;20063;-49
2022/06/12 06:43:22;;;;;;;2.00;0.90;;;17.40;99.90;;;;;;4096166;28;20602;-50
2022/06/12 06:48:26;;;;;;;0.88;0.80;;;17.80;99.90;;;;;;4156865;28;20062;-51
2022/06/12 06:50:48;;;;;;;0.80;0.80;;;18.40;99.90;;;;;;4095352;29;20414;-48
2022/06/12 06:53:12;;;;;;;2.28;0.80;;;18.40;99.90;;;;;;4079103;29;20082;-50
2022/06/12 06:55:34;;;;;;;1.75;0.80;;;18.70;99.90;;;;;;4089499;29;20054;-47
2022/06/12 06:57:57;;;;;;;0.70;0.70;;;19.00;99.90;;;;;;4090929;29;20057;-50
2022/06/12 07:00:23;;;;;;;0.70;0.70;;;19.00;99.90;;;;;;4095139;29;20127;-51
2022/06/12 07:02:46;;;;;;;0.70;0.70;;;19.20;99.90;;;;;;4079266;29;20655;-50
2022/06/12 07:05:08;;;;;;;0.70;0.70;;;19.50;99.90;;;;;;4089344;29;20130;-49
2022/06/12 07:07:30;;;;;;;1.52;0.70;;;19.80;99.90;;;;;;4080295;29;20093;-47
2022/06/12 07:09:52;;;;;;;0.60;0.60;;;19.70;99.90;;;;;;4079210;29;20055;-49
2022/06/12 07:12:14;;;;;;;0.60;0.60;;;20.00;99.90;;;;;;4157710;28;20120;-47
2022/06/12 07:14:36;;;;;;;1.95;0.50;;;20.20;99.90;;;;;;4127477;28;20053;-49
2022/06/12 07:16:58;;;;;;;0.70;0.70;;;20.40;99.90;;;;;;4092951;29;20050;-51
2022/06/12 07:19:20;;;;;;;0.80;0.70;;;20.80;99.90;;;;;;4094714;29;20317;-49
2022/06/12 07:21:42;;;;;;;0.60;0.60;;;20.90;99.90;;;;;;4094942;29;20104;-51
2022/06/12 07:24:04;;;;;;;0.60;0.60;;;21.10;99.90;;;;;;4088350;29;20522;-49
2022/06/12 07:26:32;;;;;;;0.60;0.60;;;21.10;99.90;;;;;;4094951;29;20530;-49
2022/06/12 07:28:57;;;;;;;0.60;0.60;;;21.30;99.90;;;;;;4094723;29;20046;-49
2022/06/12 07:31:20;;;;;;;0.60;0.60;;;21.50;99.90;;;;;;4094444;29;20066;-48
2022/06/12 07:33:41;;;;;;;1.27;0.82;;;21.70;99.90;;;;;;4094684;29;20046;-49
2022/06/12 07:36:08;;;;;;;0.60;0.60;;;21.70;99.90;;;;;;4094389;29;20062;-48
2022/06/12 07:38:29;;;;;;;0.52;0.52;;;22.10;99.90;;;;;;4094639;29;20066;-52
2022/06/12 07:40:57;;;;;;;0.60;0.60;;;22.30;99.90;;;;;;4094543;29;20113;-50
2022/06/12 07:43:18;;;;;;;0.50;0.50;;;22.50;99.90;;;;;;4094277;29;20113;-49
2022/06/12 07:45:43;;;;;;;0.52;0.47;;;22.70;99.90;;;;;;4093371;29;20050;-47
2022/06/12 07:48:06;;;;;;;0.50;0.50;;;22.80;99.90;;;;;;4094596;29;20053;-49
2022/06/12 07:50:28;;;;;;;0.50;0.50;;;23.10;99.90;;;;;;4094458;29;20132;-49
2022/06/12 07:52:49;;;;;;;2.20;0.50;;;23.30;99.90;;;;;;4094339;29;20100;-48
2022/06/12 07:55:15;;;;;;;0.50;0.50;;;23.50;99.90;;;;;;4094560;29;20053;-48
2022/06/12 07:57:38;;;;;;;0.60;0.60;;;23.50;99.90;;;;;;4093508;29;20140;-49
2022/06/12 08:00:00;;;;;;;0.55;0.55;;;23.80;99.90;;;;;;4094224;29;20061;-49
2022/06/12 08:02:22;;;;;;;1.48;0.60;;;23.80;99.90;;;;;;4094461;29;20058;-49
2022/06/12 08:04:43;;;;;;;0.95;0.93;;;24.50;99.90;;;;;;4093357;29;20496;-50
2022/06/12 08:07:05;;;;;;;0.50;0.50;;;24.60;99.90;;;;;;4094630;29;20569;-47
2022/06/12 08:09:27;;;;;;;0.60;0.60;;;24.90;99.90;;;;;;4080182;29;20793;-50
2022/06/12 08:11:51;;;;;;;0.50;0.50;;;24.90;99.90;;;;;;4085443;28;20131;-48
2022/06/12 08:14:17;;;;;;;1.00;0.50;;;25.10;99.30;;;;;;4080397;29;20055;-51
2022/06/12 08:16:41;;;;;;;0.50;0.40;;;25.20;99.00;;;;;;4094346;29;20112;-49
2022/06/12 08:20:24;;;;;;;1.88;0.63;;;25.20;99.90;;;;;;4079632;29;20086;-49
2022/06/12 08:21:45;;;;;;;8.20;0.70;;;25.50;98.80;;;;;;4089448;29;20177;-51
2022/06/12 08:24:09;;;;;;;0.40;0.40;;;25.90;99.70;;;;;;4094332;29;20058;-51
2022/06/12 08:26:33;;;;;;;0.40;0.40;;;26.10;98.80;;;;;;4094182;29;20145;-48
2022/06/12 08:28:58;;;;;;;5.18;0.70;;;26.00;95.40;;;;;;4080680;29;20086;-51
2022/06/12 08:31:27;;;;;;;1.13;0.40;;;26.10;97.20;;;;;;4094107;29;20462;-51
2022/06/12 08:33:53;;;;;;;2.40;0.93;;;26.10;95.90;;;;;;4094397;29;20042;-51
2022/06/12 08:36:17;;;;;;;4.55;0.75;;;26.20;93.70;;;;;;4093829;29;20105;-51
2022/06/12 08:38:39;;;;;;;0.40;0.40;;;26.40;94.10;;;;;;4078170;29;20059;-49
2022/06/12 08:41:35;;;;;;;3.83;0.70;;;26.40;93.10;;;;;;4076994;29;20059;-50
2022/06/12 08:44:21;;;;;;;0.40;0.40;;;26.40;93.40;;;;;;4087971;29;20108;-48
2022/06/12 08:47:21;;;;;;;1.52;1.42;;;26.60;92.60;;;;;;4093852;29;20131;-48
2022/06/12 08:50:15;;;;;;;1.40;1.40;;;27.10;92.60;;;;;;4093870;29;20159;-50
2022/06/12 08:52:51;;;;;;;0.63;0.63;;;26.90;91.90;;;;;;4093570;29;20097;-50
2022/06/12 08:55:29;;;;;;;3.40;2.00;;;27.00;92.00;;;;;;4093742;29;20054;-49
2022/06/12 08:57:54;;;;;;;15.18;13.80;;;27.00;91.00;;;;;;4077979;29;20482;-50
2022/06/12 09:00:19;;;;;;;1.55;1.45;;;26.90;91.10;;;;;;4090889;29;20058;-49
2022/06/12 09:02:43;;;;;;;0.50;0.50;;;27.10;91.80;;;;;;4093271;29;20062;-48
2022/06/12 09:05:11;;;;;;;1.50;0.60;;;27.60;92.00;;;;;;4093695;29;20525;-48
2022/06/12 09:07:44;;;;;;;0.88;0.40;;;27.50;90.00;;;;;;4093486;29;20046;-48
2022/06/12 09:10:08;;;;;;;;;;;27.50;89.50;;;;;;4093711;29;20051;-48
2022/06/12 09:12:55;;;;;;;0.95;0.55;;;27.40;87.30;;;;;;4124001;28;20412;-48
2022/06/12 09:15:33;;;;;;;1.13;0.40;;;27.40;90.20;;;;;;4093862;28;20054;-51
2022/06/12 09:18:28;;;;;;;0.30;0.30;;;27.70;86.50;;;;;;4095413;28;20062;-53
2022/06/12 09:21:11;;;;;;;0.30;0.30;;;27.70;88.00;;;;;;4096338;29;20058;-52
2022/06/12 09:24:13;;;;;;;0.30;0.30;;;27.70;86.60;;;;;;4080435;29;20058;-53
2022/06/12 09:26:57;;;;;;;0.30;0.30;;;27.70;87.80;;;;;;4104046;28;20100;-53
2022/06/12 09:29:33;;;;;;;0.30;0.30;;;28.10;83.90;;;;;;4096087;29;20580;-52
2022/06/12 09:32:03;;;;;;;0.40;0.40;;;28.20;85.80;;;;;;4095551;29;20197;-53
2022/06/12 09:34:33;;;;;;;0.30;0.30;;;28.20;87.40;;;;;;4095973;29;20053;-53
2022/06/12 09:37:01;;;;;;;0.32;0.32;;;28.40;87.00;;;;;;4094906;29;20069;-53
2022/06/12 09:39:54;;;;;;;0.32;0.32;;;28.50;86.20;;;;;;4080362;29;20058;-52
2022/06/12 09:42:26;;;;;;;0.40;0.40;;;28.30;82.20;;;;;;4094084;29;20065;-53
2022/06/12 09:45:01;;;;;;;0.32;0.30;;;28.10;83.00;;;;;;4095967;29;20109;-51
2022/06/12 09:47:53;;;;;;;0.30;0.30;;;28.30;84.30;;;;;;4094554;29;20054;-51
2022/06/12 09:50:52;;;;;;;0.68;0.32;;;28.10;84.40;;;;;;4084709;29;20062;-52
2022/06/12 09:53:13;;;;;;;0.95;0.32;;;28.20;83.50;;;;;;4082596;29;20053;-52
2022/06/12 09:55:37;;;;;;;0.30;0.30;;;28.10;82.30;;;;;;4095757;29;20446;-52
2022/06/12 09:58:19;;;;;;;0.30;0.30;;;28.10;82.20;;;;;;4095591;29;20058;-52
2022/06/12 10:01:11;;;;;;;1.95;0.30;;;27.80;83.50;;;;;;4094638;29;20308;-51
2022/06/12 10:03:39;;;;;;;0.30;0.30;;;28.30;83.00;;;;;;4142408;28;20591;-53
2022/06/12 10:06:12;;;;;;;0.30;0.30;;;28.10;83.80;;;;;;4136466;28;20531;-52
2022/06/12 10:08:50;;;;;;;0.30;0.30;;;28.10;82.60;;;;;;4142464;28;20065;-52
2022/06/12 10:11:23;;;;;;;0.30;0.30;;;28.10;81.10;;;;;;4141590;28;20097;-53
2022/06/12 10:13:51;;;;;;;;;;;28.20;82.10;;;;;;4129842;28;20048;-53
2022/06/12 10:16:28;;;;;;;0.30;0.30;;;28.40;82.30;;;;;;4143846;28;19932;-53
2022/06/12 10:19:34;;;;;;;0.30;0.30;;;28.60;80.90;;;;;;4131041;28;20211;-53
2022/06/12 10:22:01;;;;;;;0.30;0.30;;;28.50;80.50;;;;;;4131552;28;20089;-53
2022/06/12 10:24:22;;;;;;;1.38;0.50;;;28.40;82.80;;;;;;4129722;23;20139;-88
2022/06/12 10:26:53;;;;;;;1.80;1.70;;;28.60;83.50;;;;;;4161321;28;20873;-89
2022/06/12 10:29:50;;;;;;;1.65;0.80;;;29.30;83.80;;;;;;4085082;28;20136;-88
2022/06/12 10:32:15;;;;;;;2.67;2.55;;;29.70;83.90;;;;;;4127917;28;20113;-89
2022/06/12 10:34:36;;;;;;;0.70;0.70;;;29.70;80.50;;;;;;4108403;28;20058;-88
2022/06/12 10:37:23;;;;;;;0.50;0.50;;;29.50;81.20;;;;;;4113553;28;20058;-90
2022/06/12 10:39:45;;;;;;;0.68;0.68;;;29.20;80.60;;;;;;4124038;28;20049;-89
2022/06/12 10:42:08;;;;;;;;;;;29.30;82.70;;;;;;4122506;28;20061;-89
2022/06/12 10:44:34;;;;;;;0.30;0.30;;;29.50;82.20;;;;;;4113724;28;19985;-88
2022/06/12 10:47:17;;;;;;;0.40;0.40;;;29.50;81.80;;;;;;4114530;28;20053;-88
2022/06/12 10:49:39;;;;;;;0.30;0.30;;;29.60;81.90;;;;;;4120864;28;20065;-89
2022/06/12 10:52:27;;;;;;;1.10;0.30;;;29.70;83.30;;;;;;4100369;28;20272;-89
2022/06/12 10:54:51;;;;;;;0.38;0.38;;;29.50;83.20;;;;;;4061511;29;20059;-88
2022/06/12 10:57:38;;;;;;;0.30;0.30;;;29.20;83.50;;;;;;4052203;29;20413;-88
2022/06/12 11:00:04;;;;;;;0.30;0.30;;;29.40;80.40;;;;;;4065043;29;20091;-88
2022/06/12 11:02:35;;;;;;;1.02;0.38;;;29.60;81.90;;;;;;4046800;29;20055;-88
2022/06/12 11:05:09;;;;;;;0.30;0.30;;;29.60;81.20;;;;;;4052769;29;20094;-89
2022/06/12 11:07:44;;;;;;;0.90;0.30;;;29.70;85.40;;;;;;4065346;29;20583;-89
2022/06/12 11:10:24;;;;;;;0.35;0.30;;;29.80;83.70;;;;;;4103172;28;20050;-89
2022/06/12 11:13:03;;;;;;;0.30;0.30;;;30.10;83.80;;;;;;4091080;28;20420;-89
2022/06/12 11:15:57;;;;;;;0.30;0.30;;;29.60;81.70;;;;;;4100594;28;20051;-89
2022/06/12 11:18:34;;;;;;;0.30;0.30;;;30.20;82.40;;;;;;4085974;28;20130;-89
2022/06/12 11:21:15;;;;;;;0.30;0.30;;;30.50;85.70;;;;;;4096207;28;20106;-89
2022/06/12 11:23:43;;;;;;;0.45;0.30;;;30.40;84.70;;;;;;4106617;28;20166;-89
2022/06/12 11:26:26;;;;;;;0.85;0.20;;;30.60;82.10;;;;;;4097021;28;20058;-89
2022/06/12 11:29:00;;;;;;;0.30;0.30;;;30.50;81.60;;;;;;4097427;29;20264;-89
2022/06/12 11:31:44;;;;;;;0.22;0.22;;;30.20;82.10;;;;;;4096540;28;20380;-89
2022/06/12 11:34:42;;;;;;;0.30;0.30;;;29.70;80.90;;;;;;4074107;29;20626;-90
2022/06/12 11:37:21;;;;;;;0.30;0.30;;;29.90;83.20;;;;;;4090504;28;20050;-89
2022/06/12 11:39:59;;;;;;;0.38;0.38;;;29.80;82.00;;;;;;4092694;28;20050;-88
2022/06/12 11:42:46;;;;;;;0.30;0.30;;;30.20;83.60;;;;;;4086030;28;20086;-89
2022/06/12 11:45:50;;;;;;;0.30;0.30;;;30.20;84.60;;;;;;4077378;28;20147;-89
2022/06/12 11:48:23;;;;;;;1.13;0.22;;;30.10;82.30;;;;;;4075356;29;20051;-90
2022/06/12 11:51:12;;;;;;;0.40;0.30;;;30.20;83.30;;;;;;4080281;29;20411;-89
2022/06/12 11:54:10;;;;;;;0.20;0.20;;;29.90;83.00;;;;;;4084000;29;20089;-88
2022/06/12 11:56:48;;;;;;;0.35;0.35;;;30.30;85.40;;;;;;4092894;28;20442;-90
2022/06/12 11:59:43;;;;;;;0.20;0.20;;;30.50;83.40;;;;;;4072108;28;20131;-90
2022/06/12 12:02:12;;;;;;;1.10;0.30;;;30.70;78.70;;;;;;4083144;29;20127;-90
2022/06/12 12:04:52;;;;;;;0.20;0.20;;;30.50;79.20;;;;;;4083213;29;20804;-90
2022/06/12 12:07:52;;;;;;;0.90;0.30;;;30.90;77.80;;;;;;4089795;29;21057;-89
2022/06/12 12:10:49;;;;;;;0.20;0.20;;;30.80;78.50;;;;;;4078203;29;20050;-89
2022/06/12 12:13:16;;;;;;;0.20;0.20;;;31.20;76.90;;;;;;4095424;28;20141;-93
2022/06/12 12:15:57;;;;;;;0.30;0.30;;;31.20;79.90;;;;;;4092899;29;20069;-93
2022/06/12 12:18:43;;;;;;;0.30;0.30;;;31.00;75.30;;;;;;4082827;28;20086;-93
2022/06/12 12:21:33;;;;;;;0.30;0.30;;;30.80;82.30;;;;;;4090001;29;20180;-94
2022/06/12 12:23:56;;;;;;;3.03;0.28;;;30.90;78.30;;;;;;4086319;28;20537;-92
2022/06/12 12:26:33;;;;;;;0.30;0.30;;;30.70;78.10;;;;;;4091309;29;20467;-93
2022/06/12 12:29:04;;;;;;;0.43;0.20;;;30.70;80.50;;;;;;4077833;29;20514;-93
2022/06/12 12:31:52;;;;;;;0.20;0.20;;;30.80;78.50;;;;;;4081319;29;20136;-94
2022/06/12 12:34:41;;;;;;;0.20;0.20;;;30.40;78.50;;;;;;4134098;28;20049;-94
2022/06/12 12:43:03;;;;;;;0.32;0.20;;;31.40;79.10;;;;;;4068074;29;20058;-89
2022/06/12 12:45:23;;;;;;;0.70;0.20;;;31.40;80.10;;;;;;4074357;29;20092;-89
2022/06/12 12:48:07;;;;;;;0.25;0.22;;;31.30;78.40;;;;;;4076541;29;20803;-89
2022/06/12 12:50:49;;;;;;;0.20;0.20;;;31.40;79.60;;;;;;4074602;29;20051;-89
2022/06/12 12:53:24;;;;;;;0.40;0.30;;;31.50;76.70;;;;;;4081222;29;20058;-89
2022/06/12 12:56:27;;;;;;;0.20;0.20;;;31.10;78.40;;;;;;4073928;29;20074;-88
2022/06/12 12:59:01;;;;;;;0.30;0.30;;;30.70;78.40;;;;;;4047835;29;20265;-90
2022/06/12 13:01:36;;;;;;;0.20;0.20;;;30.60;79.70;;;;;;4029010;29;20052;-88
2022/06/12 13:04:10;;;;;;;0.30;0.30;;;30.20;78.20;;;;;;4032722;29;20052;-89
2022/06/12 13:06:48;;;;;;;1.45;0.28;;;30.80;79.20;;;;;;4027590;29;20092;-88
2022/06/12 13:09:34;;;;;;;0.30;0.30;;;31.40;80.70;;;;;;4048175;29;20063;-90
2022/06/12 13:12:24;;;;;;;0.30;0.30;;;31.40;79.20;;;;;;4052083;29;20059;-90
2022/06/12 13:14:51;;;;;;;0.20;0.20;;;31.40;79.30;;;;;;4013644;29;20094;-89
2022/06/12 13:17:28;;;;;;;0.20;0.20;;;31.40;77.30;;;;;;4018994;28;20402;-89
2022/06/12 13:20:16;;;;;;;0.20;0.20;;;31.60;78.70;;;;;;4023389;29;20061;-90
2022/06/12 13:22:49;;;;;;;0.20;0.20;;;31.30;75.00;;;;;;4031624;29;20116;-89
2022/06/12 13:27:58;;;;;;;1.85;0.30;;;31.30;78.20;;;;;;4110971;28;20054;-87